Portada
METAR-TAF:

METAR-TAF

Aeroports :

Aeroport Internacional Amata Kabua

Majuro, Illes Marshall

latitud: 07-04N, longitud: 171-17E, altitud: 2 m

Observació

L'informe es va fer fa 52 minuts, a les 10:59 UTC
Vent 8 kt del Est
Temperatura 28°C
Humitat 79%
Pressió 1011 hPa
Visibilitat: 24.1 km
Escasses núvols a una alçada de 1500 ft
Núvols disperses a una alçada de 5000 ft
Cel ennuvolat a una alçada de 30000 ft

METAR: PKMJ 231059Z 08008KT 15SM FEW015 SCT050 BKN300 28/24 A2984 RMK LAST

Hora: 23:51 (11:51 UTC)

Pronòstic

L'informe es va fer fa 21 minuts, a les 11:30 UTC
Pronòstic vàlid del 23 a les 12 UTC al 24 a les 12 UTC
Vent 10 kt del Est
Visibilitat: 10 km
Escasses núvols a una alçada de 1500 ft
Núvols disperses a una alçada de 5000 ft
Cel ennuvolat a una alçada de 12000 ft
xàfecs en les proximitats

TAF: PKMJ 231130Z 2312/2412 09010KT P6SM VCSH FEW015 SCT050 BKN120

Observacions i pronòstics meteorològics de més de 4000 aeroports (METAR i TAF).

Les estacions disponibles són els punts grocs i vermells al mapa.

Posi el ratolí al punt desitjat per veure el nom de l'estació.

Feu clic per veure les observacions i els pronòstics meteorològics.

Per canviar el mapa: feu clic els botons verds amb una creu de color negre per apropar; al botó verd amb un guió per allunyar la imatge; o en les fletxes verdes per a mapes adjacents.


METAR-TAF: